createdAt,value
2024-01-15T00:00:09.973Z,98488.59
2024-01-15T00:05:15.026Z,98464.69
2024-01-15T00:10:15.854Z,98455.25
2024-01-15T00:15:16.848Z,98456.13
2024-01-15T00:20:18.941Z,98464.81
2024-01-15T00:25:19.875Z,98441.78
2024-01-15T00:30:20.654Z,98453.75
2024-01-15T00:35:22.746Z,98432.44
2024-01-15T00:40:23.472Z,98452.16
2024-01-15T00:45:24.202Z,98439.28
2024-01-15T00:50:26.225Z,98438.66
2024-01-15T00:55:26.994Z,98448.81
2024-01-15T01:00:28.017Z,98444.56
2024-01-15T01:05:30.117Z,98426.66
2024-01-15T01:10:31.416Z,98422.25
2024-01-15T01:15:32.184Z,98429.16
2024-01-15T01:20:34.335Z,98415.59
2024-01-15T01:25:35.099Z,98407.13
2024-01-15T01:30:35.807Z,98413.09
2024-01-15T01:35:38.309Z,98401.09
2024-01-15T01:40:38.999Z,98402.97
2024-01-15T01:45:40.560Z,98377.31
2024-01-15T01:50:42.774Z,98391.88
2024-01-15T01:55:43.676Z,98385.91
2024-01-15T02:00:45.358Z,98390.09
2024-01-15T02:05:50.909Z,98391.88
2024-01-15T02:10:51.688Z,98381.47
2024-01-15T02:15:52.433Z,98386.56
2024-01-15T02:20:54.432Z,98373.00
2024-01-15T02:25:56.563Z,98373.06
2024-01-15T02:30:57.581Z,98362.81
2024-01-15T02:35:58.295Z,98355.19
2024-01-15T02:41:00.845Z,98350.94
2024-01-15T02:46:01.589Z,98343.28
2024-01-15T02:51:02.327Z,98337.31
2024-01-15T02:56:04.586Z,98334.88
2024-01-15T03:01:05.842Z,98349.38
2024-01-15T03:06:07.212Z,98334.00
2024-01-15T03:11:09.329Z,98293.81
2024-01-15T03:16:10.010Z,98322.16
2024-01-15T03:21:10.720Z,98340.03
2024-01-15T03:26:12.788Z,98316.09
2024-01-15T03:31:13.741Z,98323.03
2024-01-15T03:36:14.593Z,98323.84
2024-01-15T03:41:16.670Z,98340.19
2024-01-15T03:46:17.380Z,98353.03
2024-01-15T03:51:19.626Z,98341.19
2024-01-15T03:56:21.776Z,98338.63
2024-01-15T04:01:22.489Z,98336.25
2024-01-15T04:06:23.313Z,98343.09
2024-01-15T04:11:25.638Z,98332.09
2024-01-15T04:16:26.309Z,98332.94
2024-01-15T04:21:27.100Z,98332.94
2024-01-15T04:26:29.170Z,98317.63
2024-01-15T04:31:30.053Z,98309.16
2024-01-15T04:36:31.081Z,98320.22
2024-01-15T04:41:33.129Z,98318.50
2024-01-15T04:46:33.828Z,98298.00
2024-01-15T04:51:34.534Z,98316.03
2024-01-15T04:56:36.638Z,98304.19
2024-01-15T05:01:37.632Z,98309.41
2024-01-15T05:06:38.341Z,98322.22
2024-01-15T05:11:40.346Z,98334.28
2024-01-15T05:16:41.304Z,98339.34
2024-01-15T05:21:42.059Z,98354.75
2024-01-15T05:26:44.107Z,98347.03
2024-01-15T05:31:45.035Z,98349.56
2024-01-15T05:36:49.127Z,98347.88
2024-01-15T05:41:51.272Z,98331.78
2024-01-15T05:46:51.961Z,98346.22
2024-01-15T05:51:52.804Z,98344.44
2024-01-15T05:56:54.880Z,98346.13
2024-01-15T06:01:55.625Z,98344.47
2024-01-15T06:06:56.451Z,98348.72
2024-01-15T06:11:58.611Z,98339.31
2024-01-15T06:16:59.301Z,98328.13
2024-01-15T06:22:00.147Z,98319.56
2024-01-15T06:27:02.321Z,98328.03
2024-01-15T06:32:03.062Z,98296.41
2024-01-15T06:37:04.013Z,98312.69
2024-01-15T06:42:06.730Z,98338.28
2024-01-15T06:47:07.781Z,98315.19
2024-01-15T06:52:08.629Z,98309.19
2024-01-15T06:57:10.697Z,98306.59
2024-01-15T07:02:11.780Z,98306.59
2024-01-15T07:07:12.538Z,98326.28
2024-01-15T07:12:14.602Z,98307.50
2024-01-15T07:17:15.313Z,98325.41
2024-01-15T07:22:18.261Z,98345.94
2024-01-15T07:27:22.426Z,98354.44
2024-01-15T07:32:23.156Z,98365.59
2024-01-15T07:37:24.459Z,98400.63
2024-01-15T07:42:26.749Z,98365.69
2024-01-15T07:47:27.951Z,98360.53
2024-01-15T07:52:28.664Z,98357.16
2024-01-15T07:57:30.856Z,98369.19
2024-01-15T08:02:35.555Z,98351.16
2024-01-15T08:07:38.309Z,98351.91
2024-01-15T08:12:40.363Z,98350.22
2024-01-15T08:17:41.143Z,98352.69
2024-01-15T08:22:41.928Z,98356.09
2024-01-15T08:27:44.029Z,98357.16
2024-01-15T08:32:44.850Z,98371.47
2024-01-15T08:37:45.638Z,98350.84
2024-01-15T08:42:47.747Z,98365.38
2024-01-15T08:47:48.603Z,98355.25
2024-01-15T08:52:49.329Z,98355.06
2024-01-15T08:57:51.673Z,98367.94
2024-01-15T09:02:52.544Z,98373.84
2024-01-15T09:07:53.986Z,98367.75
2024-01-15T09:12:56.214Z,98388.22
2024-01-15T09:17:58.535Z,98389.00
2024-01-15T09:22:59.290Z,98374.97
2024-01-15T09:28:01.387Z,98387.78
2024-01-15T09:33:02.226Z,98368.91
2024-01-15T09:38:03.079Z,98383.41
2024-01-15T09:43:06.293Z,98384.81
2024-01-15T09:48:08.146Z,98365.91
2024-01-15T09:53:08.941Z,98370.91
2024-01-15T09:58:12.101Z,98382.28
2024-01-15T10:03:13.251Z,98365.78
2024-01-15T10:08:14.136Z,98361.44
2024-01-15T10:13:17.321Z,98373.72
2024-01-15T10:18:18.234Z,98365.88
2024-01-15T10:23:19.146Z,98358.16
2024-01-15T10:28:21.860Z,98345.16
2024-01-15T10:33:26.748Z,98328.81
2024-01-15T10:38:28.173Z,98355.22
2024-01-15T10:43:30.259Z,98353.47
2024-01-15T10:48:32.282Z,98374.75
2024-01-15T10:53:34.496Z,98352.69
2024-01-15T10:58:37.133Z,98367.13
2024-01-15T11:03:38.308Z,98341.56
2024-01-15T11:08:39.268Z,98357.84
2024-01-15T11:13:44.935Z,98351.06
2024-01-15T11:19:07.273Z,98338.22
2024-01-15T11:24:12.293Z,98364.75
2024-01-15T11:29:32.851Z,98334.00
2024-01-15T11:34:54.016Z,98332.38
2024-01-15T11:39:56.159Z,98348.59
2024-01-15T11:44:58.409Z,98327.69
2024-01-15T11:50:03.671Z,98317.00
2024-01-15T11:55:15.072Z,98278.56
2024-01-15T12:00:17.761Z,98322.91
2024-01-15T12:05:19.667Z,98318.53
2024-01-15T12:10:22.680Z,98302.22
2024-01-15T12:15:25.770Z,98315.31
2024-01-15T12:20:27.014Z,98310.28
2024-01-15T12:25:28.666Z,98313.72
2024-01-15T12:30:33.003Z,98313.81
2024-01-15T12:35:35.464Z,98304.41
2024-01-15T12:40:37.502Z,98310.59
2024-01-15T12:45:40.552Z,98306.25
2024-01-15T12:50:41.952Z,98304.78
2024-01-15T12:55:42.664Z,98307.53
2024-01-15T13:00:44.807Z,98305.25
2024-01-15T13:05:46.433Z,98294.94
2024-01-15T13:10:47.302Z,98308.84
2024-01-15T13:15:49.425Z,98316.47
2024-01-15T13:20:50.963Z,98309.69
2024-01-15T13:25:51.828Z,98316.56
2024-01-15T13:30:54.011Z,98306.88
2024-01-15T13:35:54.758Z,98312.13
2024-01-15T13:40:56.583Z,98308.84
2024-01-15T13:45:58.645Z,98337.22
2024-01-15T13:51:00.259Z,98351.75
2024-01-15T13:56:01.098Z,98369.13
2024-01-15T14:01:04.646Z,98371.16
2024-01-15T14:06:09.761Z,98380.69
2024-01-15T14:11:11.349Z,98362.16
2024-01-15T14:16:13.425Z,98357.00
2024-01-15T14:21:14.241Z,98371.50
2024-01-15T14:26:15.462Z,98372.28
2024-01-15T14:31:18.760Z,98384.44
2024-01-15T14:36:19.540Z,98392.97
2024-01-15T14:41:20.280Z,98399.78
2024-01-15T14:46:22.343Z,98411.81
2024-01-15T14:51:23.196Z,98419.59
2024-01-15T14:56:23.930Z,98422.31
2024-01-15T15:01:26.197Z,98419.00
2024-01-15T15:06:29.060Z,98420.72
2024-01-15T15:11:30.485Z,98420.81
2024-01-15T15:16:32.829Z,98411.41
2024-01-15T15:21:33.684Z,98423.31
2024-01-15T15:26:34.442Z,98413.94
2024-01-15T15:31:36.566Z,98424.06
2024-01-15T15:36:37.432Z,98432.56
2024-01-15T15:41:39.082Z,98435.03
2024-01-15T15:46:41.258Z,98436.75
2024-01-15T15:51:42.789Z,98445.31
2024-01-15T15:56:48.750Z,98434.19
2024-01-15T16:01:51.408Z,98438.38
2024-01-15T16:06:52.326Z,98440.94
2024-01-15T16:11:53.161Z,98440.81
2024-01-15T16:23:13.370Z,98451.88
2024-01-15T16:23:41.138Z,98450.06
2024-01-15T16:27:41.386Z,98456.16
2024-01-15T16:32:43.564Z,98476.66
2024-01-15T16:37:44.298Z,98472.38
2024-01-15T16:42:46.285Z,98482.63
2024-01-15T16:47:48.685Z,98499.75
2024-01-15T16:52:49.488Z,98494.59
2024-01-15T16:57:50.385Z,98504.00
2024-01-15T17:02:52.651Z,98505.78
2024-01-15T17:07:53.443Z,98507.72
2024-01-15T17:12:54.199Z,98512.81
2024-01-15T17:17:56.437Z,98514.47
2024-01-15T17:22:57.843Z,98510.16
2024-01-15T17:27:58.625Z,98506.72
2024-01-15T17:33:00.790Z,98515.09
2024-01-15T17:38:01.768Z,98501.34
2024-01-15T17:43:02.509Z,98515.78
2024-01-15T17:48:05.003Z,98524.34
2024-01-15T17:53:06.233Z,98521.69
2024-01-15T17:58:07.874Z,98530.25
2024-01-15T18:03:09.933Z,98533.78
2024-01-15T18:08:10.659Z,98539.06
2024-01-15T18:13:11.593Z,98545.06
2024-01-15T18:18:13.918Z,98544.22
2024-01-15T18:23:15.492Z,98545.94
2024-01-15T18:28:16.213Z,98551.91
2024-01-15T18:33:18.286Z,98551.09
2024-01-15T18:38:19.050Z,98557.03
2024-01-15T18:43:19.975Z,98568.91
2024-01-15T18:48:22.102Z,98571.44
2024-01-15T18:53:22.944Z,98578.38
2024-01-15T18:58:24.708Z,98577.59
2024-01-15T19:03:26.841Z,98570.88
2024-01-15T19:08:27.764Z,98569.19
2024-01-15T19:13:28.559Z,98585.47
2024-01-15T19:18:31.445Z,98589.66
2024-01-15T19:23:32.325Z,98599.94
2024-01-15T19:28:33.152Z,98605.06
2024-01-15T19:33:38.195Z,98611.88
2024-01-15T19:38:42.428Z,98603.41
2024-01-15T19:43:43.249Z,98594.84
2024-01-15T19:48:46.604Z,98605.09
2024-01-15T19:53:48.055Z,98601.66
2024-01-15T19:58:48.782Z,98614.44
2024-01-15T20:03:50.837Z,98605.06
2024-01-15T20:08:53.357Z,98616.94
2024-01-15T20:13:54.154Z,98606.66
2024-01-15T20:18:56.343Z,98618.53
2024-01-15T20:24:01.470Z,98627.88
2024-01-15T20:29:05.779Z,98656.94
2024-01-15T20:34:08.240Z,98658.59
2024-01-15T20:39:10.346Z,98664.59
2024-01-15T20:44:11.262Z,98662.13
2024-01-15T20:49:13.483Z,98669.00
2024-01-15T20:54:14.283Z,98669.81
2024-01-15T20:59:15.051Z,98675.75
2024-01-15T21:04:18.082Z,98674.06
2024-01-15T21:09:19.621Z,98688.63
2024-01-15T21:14:20.483Z,98700.72
2024-01-15T21:19:22.687Z,98691.34
2024-01-15T21:24:28.580Z,98699.03
2024-01-15T21:29:29.628Z,98712.59
2024-01-15T21:34:32.300Z,98712.53
2024-01-15T21:39:33.759Z,98729.53
2024-01-15T21:44:35.301Z,98744.84
2024-01-15T21:49:37.330Z,98743.91
2024-01-15T21:54:38.001Z,98764.41
2024-01-15T21:59:38.794Z,98765.31
2024-01-15T22:04:40.852Z,98772.19
2024-01-15T22:09:41.635Z,98774.75
2024-01-15T22:14:42.448Z,98778.16
2024-01-15T22:19:44.574Z,98806.38
2024-01-15T22:24:45.390Z,98797.88
2024-01-15T22:29:48.315Z,98819.31
2024-01-15T22:34:50.605Z,98830.47
2024-01-15T22:39:51.371Z,98837.38
2024-01-15T22:44:53.601Z,98821.16
2024-01-15T22:49:55.770Z,98829.69
2024-01-15T22:54:56.671Z,98828.84
2024-01-15T22:59:57.369Z,98844.19
2024-01-15T23:04:59.465Z,98851.00
2024-01-15T23:10:00.215Z,98851.03
2024-01-15T23:15:00.986Z,98856.97
2024-01-15T23:20:05.356Z,98867.22
2024-01-15T23:25:07.189Z,98882.56
2024-01-15T23:30:10.391Z,98870.59
2024-01-15T23:35:12.489Z,98869.72
2024-01-15T23:40:14.181Z,98879.94
2024-01-15T23:45:14.921Z,98885.06
2024-01-15T23:50:17.067Z,98903.00
2024-01-15T23:55:17.955Z,98909.84
